EXS1641 EGSS-LGSK
Flight info
| Callsign | EXS1641 |
|---|---|
| Flight time | N/A |
| Altitude | 37000 |
| Route | CLN M84 KONAN DCT KOK DCT SISGA DCT RITAX DCT KRH DCT KUNOD DCT GEDSO DCT VEKEN DCT TUPUS DCT MONID DCT RIVUS DCT RUDAR DCT MEDUX UM867 KOGAT DCT ERANA UL737 TSL UL617 IBIDI |
| Aircraft | B738/M-SDE2E3FGHIRWXY/LB1 |
Departure
| Time | 2026-05-04 15:58 |
|---|---|
| Airport | London Stansted Airport (EGSS) |
Arrival
| Time | N/A |
|---|---|
| Airport | Skiathos Island National Airport (LGSK) |
| Time | Latitude | Longitude | Altitude | Speed | Heading |
|---|---|---|---|---|---|
| 2026-05-04 15:19 | 51.89081 | 0.25293 | 338 ft | 0 kts | 202° |
| 2026-05-04 15:45 | 51.89090 | 0.25299 | 338 ft | 2 kts | 202° |
| 2026-05-04 15:45 | 51.89104 | 0.25308 | 338 ft | 2 kts | 213° |
| 2026-05-04 15:46 | 51.89112 | 0.25328 | 338 ft | 2 kts | 258° |
| 2026-05-04 15:46 | 51.89111 | 0.25352 | 338 ft | 2 kts | 297° |
| 2026-05-04 15:46 | 51.89102 | 0.25369 | 338 ft | 2 kts | 321° |
| 2026-05-04 15:46 | 51.89096 | 0.25377 | 338 ft | 1 kts | 313° |
| 2026-05-04 15:47 | 51.89095 | 0.25378 | 338 ft | 0 kts | 313° |
| 2026-05-04 15:49 | 51.89102 | 0.25366 | 338 ft | 3 kts | 313° |
| 2026-05-04 15:50 | 51.89122 | 0.25331 | 338 ft | 3 kts | 313° |
| 2026-05-04 15:50 | 51.89139 | 0.25302 | 338 ft | 4 kts | 309° |
| 2026-05-04 15:50 | 51.89148 | 0.25249 | 339 ft | 5 kts | 253° |
| 2026-05-04 15:50 | 51.89109 | 0.25176 | 338 ft | 12 kts | 223° |
| 2026-05-04 15:51 | 51.89026 | 0.25049 | 336 ft | 20 kts | 223° |
| 2026-05-04 15:51 | 51.88925 | 0.24898 | 334 ft | 18 kts | 223° |
| 2026-05-04 15:51 | 51.88834 | 0.24762 | 331 ft | 18 kts | 222° |
| 2026-05-04 15:51 | 51.88744 | 0.24628 | 330 ft | 17 kts | 223° |
| 2026-05-04 15:52 | 51.88650 | 0.24487 | 329 ft | 19 kts | 223° |
| 2026-05-04 15:52 | 51.88551 | 0.24338 | 328 ft | 19 kts | 223° |
| 2026-05-04 15:52 | 51.88448 | 0.24183 | 330 ft | 19 kts | 223° |
| 2026-05-04 15:52 | 51.88351 | 0.24038 | 333 ft | 18 kts | 222° |
| 2026-05-04 15:53 | 51.88253 | 0.23891 | 336 ft | 20 kts | 223° |
| 2026-05-04 15:53 | 51.88148 | 0.23733 | 339 ft | 20 kts | 223° |
| 2026-05-04 15:53 | 51.88041 | 0.23570 | 343 ft | 20 kts | 222° |
| 2026-05-04 15:53 | 51.87951 | 0.23438 | 344 ft | 16 kts | 223° |
| 2026-05-04 15:54 | 51.87861 | 0.23301 | 342 ft | 19 kts | 222° |
| 2026-05-04 15:54 | 51.87771 | 0.23167 | 339 ft | 12 kts | 222° |
| 2026-05-04 15:54 | 51.87731 | 0.23082 | 337 ft | 8 kts | 258° |
| 2026-05-04 15:54 | 51.87751 | 0.23002 | 339 ft | 7 kts | 312° |
| 2026-05-04 15:55 | 51.87785 | 0.22908 | 340 ft | 10 kts | 260° |
| 2026-05-04 15:55 | 51.87744 | 0.22831 | 341 ft | 9 kts | 221° |
| 2026-05-04 15:55 | 51.87676 | 0.22728 | 342 ft | 17 kts | 223° |
| 2026-05-04 15:55 | 51.87598 | 0.22610 | 341 ft | 13 kts | 223° |
| 2026-05-04 15:56 | 51.87535 | 0.22516 | 340 ft | 10 kts | 225° |
| 2026-05-04 15:56 | 51.87522 | 0.22427 | 341 ft | 6 kts | 296° |
| 2026-05-04 15:56 | 51.87544 | 0.22384 | 342 ft | 4 kts | 312° |
| 2026-05-04 15:56 | 51.87569 | 0.22341 | 343 ft | 6 kts | 313° |
| 2026-05-04 15:57 | 51.87607 | 0.22288 | 344 ft | 8 kts | 332° |
| 2026-05-04 15:57 | 51.87641 | 0.22259 | 344 ft | 4 kts | 325° |
| 2026-05-04 15:57 | 51.87664 | 0.22237 | 344 ft | 3 kts | 1° |
| 2026-05-04 15:57 | 51.87693 | 0.22270 | 344 ft | 7 kts | 43° |
| 2026-05-04 15:58 | 51.87836 | 0.22483 | 341 ft | 62 kts | 42° |
| 2026-05-04 15:58 | 51.88324 | 0.23216 | 346 ft | 126 kts | 42° |
| 2026-05-04 15:58 | 51.89094 | 0.24374 | 434 ft | 169 kts | 41° |
| 2026-05-04 15:58 | 51.89939 | 0.25661 | 1118 ft | 170 kts | 40° |
| 2026-05-04 15:59 | 51.90810 | 0.26949 | 1791 ft | 168 kts | 39° |
| 2026-05-04 15:59 | 51.91516 | 0.28532 | 2077 ft | 189 kts | 70° |
| 2026-05-04 15:59 | 51.91583 | 0.30751 | 2341 ft | 214 kts | 97° |
| 2026-05-04 15:59 | 51.91078 | 0.33110 | 2786 ft | 230 kts | 111° |
| 2026-05-04 16:00 | 51.90394 | 0.35562 | 3147 ft | 252 kts | 111° |
| 2026-05-04 16:00 | 51.89650 | 0.38268 | 3578 ft | 270 kts | 112° |
| 2026-05-04 16:00 | 51.88870 | 0.41063 | 4293 ft | 276 kts | 113° |
| 2026-05-04 16:00 | 51.88039 | 0.43878 | 4930 ft | 284 kts | 114° |
| 2026-05-04 16:01 | 51.87196 | 0.46760 | 5741 ft | 284 kts | 113° |
| 2026-05-04 16:01 | 51.86345 | 0.49680 | 6392 ft | 292 kts | 114° |
| 2026-05-04 16:01 | 51.85476 | 0.52646 | 7167 ft | 294 kts | 113° |
| 2026-05-04 16:01 | 51.84593 | 0.55653 | 7819 ft | 301 kts | 114° |
| 2026-05-04 16:02 | 51.83688 | 0.58715 | 8561 ft | 305 kts | 115° |
| 2026-05-04 16:02 | 51.83001 | 0.61992 | 9245 ft | 310 kts | 95° |
| 2026-05-04 16:02 | 51.83148 | 0.68998 | 10532 ft | 323 kts | 89° |
| 2026-05-04 16:03 | 51.83314 | 0.72736 | 10734 ft | 346 kts | 89° |
| 2026-05-04 16:03 | 51.83459 | 0.76653 | 11255 ft | 357 kts | 89° |
| 2026-05-04 16:03 | 51.83604 | 0.80679 | 11849 ft | 365 kts | 88° |
| 2026-05-04 16:03 | 51.83758 | 0.84840 | 12465 ft | 373 kts | 88° |
| 2026-05-04 16:04 | 51.83913 | 0.89023 | 13138 ft | 379 kts | 88° |
| 2026-05-04 16:04 | 51.84233 | 0.97702 | 14457 ft | 391 kts | 88° |
| 2026-05-04 16:04 | 51.84394 | 1.02098 | 15130 ft | 396 kts | 88° |
| 2026-05-04 16:05 | 51.84544 | 1.06518 | 15776 ft | 401 kts | 90° |
| 2026-05-04 16:05 | 51.84280 | 1.11027 | 16385 ft | 401 kts | 109° |
| 2026-05-04 16:05 | 51.81410 | 1.18251 | 17669 ft | 381 kts | 148° |
| 2026-05-04 16:06 | 51.79245 | 1.20730 | 18322 ft | 379 kts | 154° |
| 2026-05-04 16:06 | 51.73429 | 1.27465 | 19832 ft | 394 kts | 151° |
| 2026-05-04 16:07 | 51.70497 | 1.31027 | 20575 ft | 399 kts | 152° |
| 2026-05-04 16:07 | 51.63769 | 1.39199 | 22120 ft | 411 kts | 152° |
| 2026-05-04 16:08 | 51.61483 | 1.41972 | 22606 ft | 415 kts | 152° |
| 2026-05-04 16:08 | 51.54517 | 1.50413 | 23981 ft | 425 kts | 153° |
| 2026-05-04 16:09 | 51.49753 | 1.56169 | 24847 ft | 432 kts | 153° |
| 2026-05-04 16:09 | 51.44944 | 1.61965 | 25663 ft | 438 kts | 153° |
| 2026-05-04 16:10 | 51.40049 | 1.67850 | 26453 ft | 443 kts | 155° |
| 2026-05-04 16:11 | 51.32840 | 1.76486 | 27456 ft | 452 kts | 155° |
| 2026-05-04 16:11 | 51.30326 | 1.79489 | 27783 ft | 454 kts | 155° |